Time;durP1;ratioP1;P1;durP2;ratioP2;P2;SDS_P1;SDS_P2;PMS_P1;PMS_P2;Temp;Humidity;BMP_temperature;BMP_pressure;BME280_temperature;BME280_humidity;BME280_pressure;Samples;Min_cycle;Max_cycle;Signal;HPM_P1;HPM_P2
2022/11/19 00:00:26;;;;;;;24.83;18.03;;;;;;;5.97;100.00;100582.47;5266009;28;20033;-73
2022/11/19 00:02:57;;;;;;;26.20;18.63;;;;;;;5.89;100.00;100578.09;5265369;28;20025;-73
2022/11/19 00:05:28;;;;;;;25.20;19.97;;;;;;;5.81;100.00;100575.47;5265890;28;20472;-73
2022/11/19 00:08:00;;;;;;;24.87;19.43;;;;;;;5.78;100.00;100581.50;5265267;28;20060;-75
2022/11/19 00:10:33;;;;;;;28.60;20.90;;;;;;;5.65;100.00;100582.31;5265857;28;20021;-73
2022/11/19 00:13:06;;;;;;;27.05;19.80;;;;;;;5.70;100.00;100588.38;5265399;28;20029;-74
2022/11/19 00:15:37;;;;;;;25.85;20.10;;;;;;;5.68;100.00;100586.63;5265224;28;20037;-74
2022/11/19 00:18:08;;;;;;;32.77;19.67;;;;;;;5.68;100.00;100590.06;5264408;28;20127;-73
2022/11/19 00:20:40;;;;;;;27.50;20.53;;;;;;;5.58;100.00;100591.75;5265388;28;20025;-74
2022/11/19 00:23:11;;;;;;;29.60;19.73;;;;;;;5.64;100.00;100590.94;5231315;28;20494;-74
2022/11/19 00:25:43;;;;;;;28.53;21.03;;;;;;;5.66;100.00;100600.41;5265494;28;20120;-73
2022/11/19 00:28:14;;;;;;;27.53;19.80;;;;;;;5.64;100.00;100596.09;5265120;28;20116;-72
2022/11/19 00:30:45;;;;;;;27.30;19.53;;;;;;;5.64;100.00;100598.69;5265634;28;20033;-74
2022/11/19 00:33:17;;;;;;;25.57;20.60;;;;;;;5.57;100.00;100602.09;5246851;28;20124;-74
2022/11/19 00:35:48;;;;;;;25.13;19.73;;;;;;;5.49;100.00;100599.50;5265590;28;20045;-76
2022/11/19 00:38:19;;;;;;;25.43;19.90;;;;;;;5.35;100.00;100601.13;5263764;28;20514;-75
2022/11/19 00:40:51;;;;;;;27.50;20.50;;;;;;;5.34;100.00;100602.84;5265232;28;20029;-75
2022/11/19 00:46:28;;;;;;;23.58;19.25;;;;;;;5.39;100.00;100613.22;5265420;28;20036;-74
2022/11/19 00:48:59;;;;;;;27.02;19.65;;;;;;;5.20;100.00;100607.06;5264779;28;20032;-74
2022/11/19 00:51:31;;;;;;;25.43;20.17;;;;;;;5.20;100.00;100607.94;5264114;28;20033;-74
2022/11/19 00:54:02;;;;;;;26.53;18.60;;;;;;;5.21;100.00;100611.38;5265021;28;20383;-73
2022/11/19 00:56:33;;;;;;;26.23;19.13;;;;;;;5.27;100.00;100614.88;5264999;28;20047;-73
2022/11/19 00:59:05;;;;;;;27.30;18.90;;;;;;;5.20;100.00;100612.22;5264515;28;20404;-74
2022/11/19 01:01:36;;;;;;;29.63;18.43;;;;;;;5.07;100.00;100607.00;5264421;28;20086;-78
2022/11/19 01:04:08;;;;;;;25.27;18.73;;;;;;;5.00;100.00;100612.97;5264393;28;20033;-74
2022/11/19 01:06:39;;;;;;;26.33;19.83;;;;;;;4.96;100.00;100616.38;5264516;28;20139;-74
2022/11/19 01:09:10;;;;;;;30.23;19.37;;;;;;;4.93;100.00;100622.38;5264577;28;20049;-73
2022/11/19 01:11:42;;;;;;;25.97;19.67;;;;;;;5.03;100.00;100618.16;5263285;28;20379;-75
2022/11/19 01:14:13;;;;;;;24.77;18.53;;;;;;;5.09;100.00;100620.78;5262968;28;20029;-74
2022/11/19 01:16:44;;;;;;;26.70;19.23;;;;;;;5.01;100.00;100625.03;5263090;28;20044;-74
2022/11/19 01:19:16;;;;;;;28.37;20.03;;;;;;;4.97;100.00;100627.56;5264249;28;20037;-75
2022/11/19 01:21:47;;;;;;;29.43;20.93;;;;;;;4.91;100.00;100641.28;5264439;28;20028;-75
2022/11/19 01:24:19;;;;;;;24.17;19.17;;;;;;;4.98;100.00;100637.06;5264341;28;20029;-75
2022/11/19 01:26:50;;;;;;;26.97;20.00;;;;;;;5.03;100.00;100635.38;5264183;28;20460;-74
2022/11/19 01:29:21;;;;;;;28.40;20.43;;;;;;;4.91;100.00;100641.28;5264266;28;20029;-74
2022/11/19 01:31:53;;;;;;;25.93;21.63;;;;;;;4.90;100.00;100637.84;5264247;28;20029;-74
2022/11/19 01:34:24;;;;;;;25.17;20.33;;;;;;;4.88;100.00;100652.47;5264209;28;20036;-74
2022/11/19 01:36:55;;;;;;;27.40;21.90;;;;;;;4.83;100.00;100659.34;5262604;28;20070;-74
2022/11/19 01:39:27;;;;;;;29.00;21.27;;;;;;;4.71;100.00;100654.91;5264039;28;20636;-73
2022/11/19 01:41:58;;;;;;;26.40;22.07;;;;;;;4.74;100.00;100664.41;5264103;28;20037;-74
2022/11/19 01:45:04;;;;;;;27.50;20.53;;;;;;;4.69;100.00;100664.38;5262489;28;20166;-74
2022/11/19 01:47:35;;;;;;;28.83;20.23;;;;;;;4.69;100.00;100656.63;5263775;28;20064;-74
2022/11/19 01:50:07;;;;;;;27.43;21.67;;;;;;;4.77;100.00;100664.44;5263821;28;20056;-73
2022/11/19 01:52:39;;;;;;;31.87;21.63;;;;;;;4.72;100.00;100664.41;5263702;28;20472;-72
2022/11/19 01:55:11;;;;;;;31.40;22.70;;;;;;;4.64;100.00;100665.19;5264028;28;20029;-73
2022/11/19 01:57:42;;;;;;;27.80;20.70;;;;;;;4.61;100.00;100666.00;5263682;28;20366;-73
2022/11/19 02:00:14;;;;;;;30.70;23.30;;;;;;;4.58;100.00;100676.31;5263428;28;20263;-74
2022/11/19 02:02:46;;;;;;;26.60;21.93;;;;;;;4.48;100.00;100677.06;5262974;28;20045;-74
2022/11/19 02:05:18;;;;;;;30.97;23.33;;;;;;;4.47;100.00;100683.06;5263914;28;20276;-75
2022/11/19 02:07:56;;;;;;;26.75;20.60;;;;;;;4.40;100.00;100673.56;5263475;28;20389;-74
2022/11/19 02:10:46;;;;;;;27.88;21.05;;;;;;;4.37;100.00;100682.13;5262105;28;20082;-74
2022/11/19 02:13:26;;;;;;;23.73;21.00;;;;;;;4.26;100.00;100681.97;5263204;28;20056;-73
2022/11/19 02:16:34;;;;;;;23.40;20.25;;;;;;;4.27;100.00;100678.56;5263379;28;20029;-74
2022/11/19 02:19:34;;;;;;;24.20;21.30;;;;;;;4.38;100.00;100689.03;5263070;28;20045;-74
2022/11/19 02:22:28;;;;;;;25.35;21.10;;;;;;;4.26;100.00;100686.28;5263270;28;20078;-73
2022/11/19 02:25:13;;;;;;;27.80;20.17;;;;;;;4.41;100.00;100688.16;5262990;28;20472;-74
2022/11/19 02:28:00;;;;;;;26.50;21.08;;;;;;;4.24;100.00;100688.84;5262830;28;20059;-73
2022/11/19 02:30:44;;;;;;;25.70;20.27;;;;;;;4.28;100.00;100680.31;5261870;28;20043;-73
2022/11/19 02:33:24;;;;;;;25.25;20.45;;;;;;;4.24;100.00;100685.41;5262365;28;20071;-74
2022/11/19 02:36:27;;;;;;;27.42;20.33;;;;;;;4.35;100.00;100682.09;5262733;28;20029;-73
2022/11/19 02:39:11;;;;;;;24.70;18.00;;;;;;;4.26;100.00;100688.88;5261970;28;20078;-75
2022/11/19 02:42:21;;;;;;;21.63;16.88;;;;;;;4.22;100.00;100687.97;5262291;28;20064;-79
2022/11/19 02:45:01;;;;;;;21.27;16.55;;;;;;;4.17;100.00;100682.75;5240123;28;20041;-74
2022/11/19 02:47:44;;;;;;;19.45;15.82;;;;;;;4.16;100.00;100682.75;5261056;28;20033;-74
2022/11/19 02:50:19;;;;;;;19.60;16.70;;;;;;;4.07;100.00;100693.78;5262714;28;20036;-73
2022/11/19 02:52:51;;;;;;;17.90;14.80;;;;;;;4.09;100.00;100692.13;5263624;28;20024;-74
2022/11/19 02:55:23;;;;;;;16.67;14.87;;;;;;;4.12;100.00;100694.75;5262631;28;20029;-73
2022/11/19 02:58:01;;;;;;;22.40;15.97;;;;;;;4.03;100.00;100697.19;5261529;28;20029;-74
2022/11/19 03:06:26;;;;;;;14.80;12.57;;;;;;;3.77;100.00;100707.19;5261125;28;20036;-73
2022/11/19 03:08:58;;;;;;;16.88;12.52;;;;;;;3.74;100.00;100707.13;5261307;28;20468;-75
2022/11/19 03:11:31;;;;;;;16.40;12.30;;;;;;;3.68;100.00;100705.31;5261014;28;20044;-73
2022/11/19 03:17:42;;;;;;;13.48;12.07;;;;;;;3.55;100.00;100717.16;5264144;28;20033;-73
2022/11/19 03:20:25;;;;;;;14.05;12.55;;;;;;;3.51;100.00;100723.13;5262291;28;20060;-74
2022/11/19 03:23:08;;;;;;;14.05;12.57;;;;;;;3.54;100.00;100718.03;5261071;28;20029;-74
2022/11/19 03:25:47;;;;;;;15.23;13.45;;;;;;;3.42;100.00;100715.25;5261438;28;20024;-73
2022/11/19 03:28:23;;;;;;;14.25;12.52;;;;;;;3.38;100.00;100719.50;5261324;28;20028;-73
2022/11/19 03:30:57;;;;;;;14.63;13.00;;;;;;;3.49;100.00;100722.22;5261881;28;20029;-74
2022/11/19 03:33:34;;;;;;;16.27;13.75;;;;;;;3.38;100.00;100727.25;5260802;28;20101;-74
2022/11/19 03:36:13;;;;;;;17.88;15.00;;;;;;;3.37;100.00;100722.91;5261112;28;20058;-73
2022/11/19 03:38:51;;;;;;;17.48;14.40;;;;;;;3.33;100.00;100730.56;5261251;28;20056;-72
2022/11/19 03:41:26;;;;;;;17.15;14.73;;;;;;;3.34;100.00;100730.59;5262209;28;20033;-73
2022/11/19 03:44:03;;;;;;;15.88;14.18;;;;;;;3.35;100.00;100729.75;5261794;28;20400;-73
2022/11/19 03:46:38;;;;;;;17.77;15.88;;;;;;;3.26;100.00;100725.31;5260695;28;20024;-72
2022/11/19 03:49:12;;;;;;;17.25;14.70;;;;;;;3.26;100.00;100727.88;5261679;28;20033;-72
2022/11/19 03:51:49;;;;;;;17.17;15.35;;;;;;;3.24;100.00;100734.72;5261755;28;20032;-75
2022/11/19 03:54:21;;;;;;;18.67;16.15;;;;;;;3.31;100.00;100738.28;5262085;28;20025;-73
2022/11/19 03:56:53;;;;;;;21.10;15.90;;;;;;;3.26;100.00;100739.91;5261636;28;20033;-76
2022/11/19 03:59:26;;;;;;;21.42;16.17;;;;;;;3.27;100.00;100742.50;5261934;28;20032;-73
2022/11/19 04:02:02;;;;;;;17.77;15.88;;;;;;;3.23;100.00;100745.88;5260275;28;20025;-74
2022/11/19 04:04:36;;;;;;;20.77;16.85;;;;;;;3.21;100.00;100744.97;5261994;28;20171;-73
2022/11/19 04:07:18;;;;;;;21.52;16.70;;;;;;;3.14;100.00;100744.84;5260071;28;20056;-74
2022/11/19 04:09:50;;;;;;;33.03;17.45;;;;;;;3.05;100.00;100746.44;5261857;28;20025;-74
2022/11/19 04:12:24;;;;;;;23.33;17.63;;;;;;;3.09;100.00;100747.34;5260483;28;20021;-73
2022/11/19 04:14:55;;;;;;;22.35;18.90;;;;;;;3.00;100.00;100744.63;5261697;28;20033;-74
2022/11/19 04:17:26;;;;;;;22.23;19.27;;;;;;;3.04;100.00;100751.56;5261800;28;20115;-73
2022/11/19 04:19:58;;;;;;;26.40;19.70;;;;;;;3.02;100.00;100751.53;5243622;28;20503;-74
2022/11/19 04:22:29;;;;;;;24.10;18.47;;;;;;;3.07;100.00;100754.19;5261969;28;20169;-73
2022/11/19 04:25:00;;;;;;;25.57;20.70;;;;;;;3.00;100.00;100765.22;5261513;28;20462;-74
2022/11/19 04:27:32;;;;;;;24.50;19.77;;;;;;;2.93;100.00;100759.09;5265223;28;20040;-74
2022/11/19 04:30:04;;;;;;;26.17;20.37;;;;;;;2.94;100.00;100768.53;5264194;28;20108;-75
2022/11/19 04:32:35;;;;;;;24.73;21.23;;;;;;;2.87;100.00;100771.88;5264691;28;20488;-73
2022/11/19 04:35:07;;;;;;;25.87;20.73;;;;;;;2.86;100.00;100776.13;5265111;28;20028;-73
2022/11/19 04:37:39;;;;;;;24.77;20.13;;;;;;;2.91;100.00;100783.94;5265355;28;20040;-74
2022/11/19 04:40:11;;;;;;;25.23;21.30;;;;;;;2.75;100.00;100790.50;5265335;28;20025;-75
2022/11/19 04:42:42;;;;;;;26.63;21.40;;;;;;;2.86;100.00;100783.84;5264950;28;20033;-73
2022/11/19 04:45:14;;;;;;;25.37;21.20;;;;;;;2.85;100.00;100786.38;5264085;28;20037;-73
2022/11/19 04:47:45;;;;;;;25.80;20.30;;;;;;;2.82;100.00;100786.34;5263778;28;20025;-74
2022/11/19 04:50:16;;;;;;;25.37;21.67;;;;;;;2.73;100.00;100776.75;5265475;28;20039;-73
2022/11/19 04:52:48;;;;;;;25.10;20.87;;;;;;;2.76;100.00;100783.66;5264967;28;20071;-72
2022/11/19 04:55:19;;;;;;;24.80;20.73;;;;;;;2.67;100.00;100786.91;5264920;28;20044;-73
2022/11/19 04:57:51;;;;;;;24.73;21.60;;;;;;;2.67;100.00;100786.91;5264800;28;20049;-74
2022/11/19 05:00:23;;;;;;;27.27;21.65;;;;;;;2.73;100.00;100784.47;5264710;28;20025;-73
2022/11/19 05:02:54;;;;;;;25.57;21.40;;;;;;;2.75;100.00;100787.94;5263052;28;20056;-74
2022/11/19 05:05:25;;;;;;;25.30;20.63;;;;;;;2.70;100.00;100789.56;5264869;28;20065;-75
2022/11/19 05:07:57;;;;;;;27.10;21.97;;;;;;;2.64;100.00;100797.16;5264480;28;20053;-72
2022/11/19 05:10:28;;;;;;;27.27;22.43;;;;;;;2.61;100.00;100792.81;5263503;28;20090;-73
2022/11/19 05:13:00;;;;;;;29.57;24.57;;;;;;;2.67;100.00;100794.63;5264432;28;20033;-74
2022/11/19 05:15:31;;;;;;;27.07;22.50;;;;;;;2.65;100.00;100801.47;5263366;28;20329;-75
2022/11/19 05:18:02;;;;;;;26.27;22.50;;;;;;;2.54;100.00;100815.00;5264161;28;20499;-74
2022/11/19 05:20:34;;;;;;;27.87;22.97;;;;;;;2.55;100.00;100816.72;5263109;28;20388;-74
2022/11/19 05:23:06;;;;;;;28.50;22.40;;;;;;;2.57;100.00;100814.19;5264669;28;20123;-73
2022/11/19 05:25:37;;;;;;;28.23;22.50;;;;;;;2.63;100.00;100822.03;5264290;28;20108;-73
2022/11/19 05:28:08;;;;;;;26.47;22.00;;;;;;;2.60;100.00;100819.38;5264110;28;20029;-73
2022/11/19 05:30:40;;;;;;;27.97;24.00;;;;;;;2.62;100.00;100822.00;5264261;28;20392;-74
2022/11/19 05:33:11;;;;;;;27.70;23.43;;;;;;;2.58;100.00;100820.19;5263739;28;20472;-74
2022/11/19 05:35:42;;;;;;;28.90;24.00;;;;;;;2.52;100.00;100823.50;5264165;28;20029;-72
2022/11/19 05:38:14;;;;;;;27.13;24.20;;;;;;;2.46;100.00;100821.66;5263850;28;20033;-72
2022/11/19 05:40:45;;;;;;;28.43;23.53;;;;;;;2.55;100.00;100832.16;5264417;28;20036;-73
2022/11/19 05:43:17;;;;;;;27.43;24.37;;;;;;;2.40;100.00;100830.97;5263540;28;20033;-74
2022/11/19 05:45:48;;;;;;;28.33;23.67;;;;;;;2.45;100.00;100837.97;5263987;28;20029;-72
2022/11/19 05:48:19;;;;;;;27.47;23.37;;;;;;;2.40;100.00;100833.53;5263497;28;20025;-74
2022/11/19 05:50:51;;;;;;;29.27;25.77;;;;;;;2.27;100.00;100827.25;5262595;28;20111;-73
2022/11/19 05:53:22;;;;;;;27.00;23.37;;;;;;;2.31;100.00;100831.66;5263799;28;20083;-74
2022/11/19 05:55:53;;;;;;;26.77;23.83;;;;;;;2.27;100.00;100834.97;5263690;28;20484;-72
2022/11/19 05:58:25;;;;;;;29.30;25.03;;;;;;;2.28;100.00;100841.88;5276986;28;20478;-75
2022/11/19 06:00:58;;;;;;;27.50;24.57;;;;;;;2.21;100.00;100848.59;5283017;28;20028;-74
2022/11/19 06:03:29;;;;;;;29.77;25.13;;;;;;;2.18;100.00;100844.22;5284248;28;20024;-74
2022/11/19 06:06:01;;;;;;;29.87;25.97;;;;;;;2.22;100.00;100858.00;5284422;28;20030;-75
2022/11/19 06:08:32;;;;;;;29.07;25.93;;;;;;;2.18;100.00;100851.94;5284046;28;20053;-74
2022/11/19 06:11:04;;;;;;;29.00;25.93;;;;;;;2.23;100.00;100856.34;5284459;28;20067;-74
2022/11/19 06:13:35;;;;;;;35.77;26.13;;;;;;;2.14;100.00;100854.41;5284345;28;20032;-75
2022/11/19 06:16:06;;;;;;;28.97;25.77;;;;;;;2.26;100.00;100861.56;5284496;28;20029;-73
2022/11/19 06:18:38;;;;;;;30.50;25.80;;;;;;;2.27;100.00;100858.13;5284100;28;20028;-73
2022/11/19 06:21:09;;;;;;;31.10;26.50;;;;;;;2.28;100.00;100867.59;5283104;28;20028;-74
2022/11/19 06:23:40;;;;;;;31.87;27.23;;;;;;;2.30;100.00;100866.81;5284236;28;20031;-73
2022/11/19 06:26:21;;;;;;;32.20;26.97;;;;;;;2.37;100.00;100875.53;5282971;28;20033;-74
2022/11/19 06:28:53;;;;;;;30.15;26.13;;;;;;;2.31;100.00;100885.66;5284093;28;20037;-75
2022/11/19 06:31:24;;;;;;;33.13;25.20;;;;;;;2.31;100.00;100885.66;5283838;28;20028;-72
2022/11/19 06:33:56;;;;;;;30.47;26.57;;;;;;;2.26;100.00;100885.56;5283357;28;20043;-73
2022/11/19 06:36:27;;;;;;;28.43;25.33;;;;;;;2.16;100.00;100891.34;5283901;28;20028;-74
2022/11/19 06:38:58;;;;;;;31.30;27.90;;;;;;;2.17;100.00;100890.47;5284078;28;20093;-73
2022/11/19 06:41:30;;;;;;;31.40;27.57;;;;;;;2.12;100.00;100900.66;5283588;28;20489;-73
2022/11/19 06:44:02;;;;;;;33.00;28.07;;;;;;;2.17;100.00;100896.53;5283443;28;20490;-73
2022/11/19 06:46:34;;;;;;;35.78;29.30;;;;;;;2.16;100.00;100899.91;5283656;28;20021;-75
2022/11/19 06:49:06;;;;;;;34.13;28.93;;;;;;;2.16;100.00;100896.47;5282917;28;20039;-73
2022/11/19 06:51:37;;;;;;;34.75;29.08;;;;;;;2.08;100.00;100898.88;5283245;28;20056;-74
2022/11/19 06:54:09;;;;;;;35.70;30.03;;;;;;;2.13;100.00;100902.41;5281817;28;20407;-74
2022/11/19 06:56:40;;;;;;;35.03;29.53;;;;;;;2.08;100.00;100903.16;5282951;28;20383;-73
2022/11/19 06:59:11;;;;;;;38.37;30.47;;;;;;;2.08;100.00;100906.59;5282233;28;20388;-73
2022/11/19 07:01:42;;;;;;;35.43;30.73;;;;;;;1.95;100.00;100905.41;5282827;28;20085;-73
2022/11/19 07:04:14;;;;;;;36.90;29.60;;;;;;;2.00;100.00;100910.69;5281673;28;20040;-73
2022/11/19 07:06:45;;;;;;;38.47;29.70;;;;;;;2.04;100.00;100914.19;5281597;28;20039;-72
2022/11/19 07:09:18;;;;;;;39.03;31.70;;;;;;;1.95;100.00;100919.97;5282661;28;20049;-72
2022/11/19 07:11:49;;;;;;;37.73;30.27;;;;;;;1.94;100.00;100924.22;5282008;28;20432;-74
2022/11/19 07:14:21;;;;;;;41.20;32.17;;;;;;;1.88;100.00;100928.34;5271489;28;20036;-74
2022/11/19 07:16:52;;;;;;;37.80;31.30;;;;;;;1.90;100.00;100922.44;5276026;28;20032;-73
2022/11/19 07:19:23;;;;;;;43.57;32.30;;;;;;;1.81;100.00;100928.19;5281011;28;20035;-73
2022/11/19 07:21:55;;;;;;;42.33;32.90;;;;;;;1.78;100.00;100930.69;5264198;28;20040;-74
2022/11/19 07:24:26;;;;;;;38.80;32.13;;;;;;;1.80;100.00;100939.34;5260252;28;20110;-74
2022/11/19 07:26:58;;;;;;;41.27;32.60;;;;;;;1.81;100.00;100935.06;5261328;28;20171;-72
2022/11/19 07:29:29;;;;;;;43.97;33.67;;;;;;;1.88;100.00;100939.50;5259374;28;20033;-75
2022/11/19 07:32:01;;;;;;;39.00;31.47;;;;;;;1.82;100.00;100939.38;5260687;28;20071;-73
2022/11/19 07:34:32;;;;;;;39.37;30.27;;;;;;;1.75;100.00;100945.16;5260508;28;20037;-73
2022/11/19 07:37:03;;;;;;;40.00;30.77;;;;;;;1.79;100.00;100947.88;5260325;28;20472;-73
2022/11/19 07:39:35;;;;;;;40.17;31.77;;;;;;;1.88;100.00;100957.50;5260626;28;20540;-74
2022/11/19 07:44:56;;;;;;;38.22;30.40;;;;;;;1.84;100.00;100962.53;5257389;28;20049;-74
2022/11/19 07:47:28;;;;;;;40.50;31.57;;;;;;;1.81;100.00;100966.75;5263137;28;20029;-73
2022/11/19 07:49:59;;;;;;;39.70;31.23;;;;;;;1.88;100.00;100959.22;5261042;28;20087;-73
2022/11/19 07:52:31;;;;;;;40.53;32.50;;;;;;;1.80;100.00;100962.47;5277554;28;20033;-73
2022/11/19 07:55:02;;;;;;;37.97;30.40;;;;;;;1.88;100.00;100972.06;5280787;28;20071;-72
2022/11/19 07:57:34;;;;;;;40.67;32.00;;;;;;;1.87;100.00;100971.19;5281331;28;20475;-76
2022/11/19 08:00:06;;;;;;;40.43;31.73;;;;;;;1.94;100.00;100973.06;5281886;28;20028;-75
2022/11/19 08:02:37;;;;;;;43.97;31.73;;;;;;;1.90;100.00;100975.53;5282735;28;20372;-73
2022/11/19 08:05:09;;;;;;;41.53;31.17;;;;;;;1.89;100.00;100973.81;5265130;28;20028;-74
2022/11/19 08:07:41;;;;;;;40.27;31.27;;;;;;;1.84;99.21;100978.81;5245685;28;20057;-74
2022/11/19 08:10:12;;;;;;;36.67;29.97;;;;;;;1.88;99.46;100983.19;5263485;28;20075;-74
2022/11/19 08:13:01;;;;;;;39.50;31.57;;;;;;;1.97;99.64;100980.00;5265522;28;20275;-74
2022/11/19 08:15:33;;;;;;;38.60;30.52;;;;;;;2.01;99.85;100992.09;5262940;28;20460;-74
2022/11/19 08:18:14;;;;;;;40.40;31.77;;;;;;;2.10;100.00;101000.06;5263825;28;20025;-74
2022/11/19 08:20:47;;;;;;;38.15;30.20;;;;;;;2.02;99.40;100993.00;5265148;28;20406;-73
2022/11/19 08:23:19;;;;;;;36.45;29.85;;;;;;;2.11;100.00;100991.53;5264380;28;20032;-74
2022/11/19 08:25:51;;;;;;;36.07;30.13;;;;;;;2.06;99.77;100992.22;5263630;28;20040;-75
2022/11/19 08:28:23;;;;;;;39.53;30.92;;;;;;;2.12;99.45;100989.81;5264910;28;20123;-74
2022/11/19 08:30:55;;;;;;;41.30;29.67;;;;;;;2.11;99.19;100988.94;5263348;28;20124;-73
2022/11/19 08:33:26;;;;;;;36.72;29.33;;;;;;;1.96;98.50;100986.84;5264954;28;20025;-73
2022/11/19 08:35:57;;;;;;;39.83;32.57;;;;;;;2.04;99.01;100999.91;5264841;28;20066;-73
2022/11/19 08:38:29;;;;;;;37.00;29.00;;;;;;;1.96;98.69;101011.69;5265200;28;20037;-74
2022/11/19 08:43:50;;;;;;;35.33;28.38;;;;;;;2.04;98.74;100996.47;5263473;28;20071;-73
2022/11/19 08:46:21;;;;;;;37.93;29.33;;;;;;;2.04;97.60;101001.59;5260825;28;20040;-78
2022/11/19 08:48:53;;;;;;;37.53;30.50;;;;;;;2.08;97.97;100999.16;5276681;28;20119;-73
2022/11/19 08:51:24;;;;;;;38.87;29.83;;;;;;;2.09;98.31;101005.16;5285201;28;20028;-72
2022/11/19 08:53:56;;;;;;;39.90;31.03;;;;;;;2.12;98.31;101008.66;5268520;28;20077;-74
2022/11/19 08:56:27;;;;;;;37.73;30.23;;;;;;;2.14;98.57;101013.84;5272393;28;20052;-73
2022/11/19 08:58:58;;;;;;;36.60;29.37;;;;;;;2.11;97.89;101014.66;5272857;28;20064;-74
2022/11/19 09:01:30;;;;;;;39.13;29.70;;;;;;;2.07;97.48;101012.84;5268243;28;20032;-73
2022/11/19 09:04:01;;;;;;;39.40;30.60;;;;;;;2.23;97.74;101018.38;5263708;28;20029;-73
2022/11/19 09:06:33;;;;;;;35.10;29.03;;;;;;;2.21;97.70;101017.44;5264351;28;20055;-74
2022/11/19 09:09:05;;;;;;;35.05;28.48;;;;;;;2.25;96.98;101019.28;5262121;28;20037;-74
2022/11/19 09:11:36;;;;;;;37.57;29.73;;;;;;;2.39;97.19;101019.63;5263495;28;20083;-74
2022/11/19 09:14:07;;;;;;;36.07;28.43;;;;;;;2.34;97.11;101022.94;5263453;28;20079;-75
2022/11/19 09:16:39;;;;;;;35.37;29.63;;;;;;;2.21;96.37;101025.16;5262586;28;20083;-73
2022/11/19 09:19:10;;;;;;;40.43;29.97;;;;;;;2.15;95.68;101023.31;5263339;28;20025;-75
2022/11/19 09:21:42;;;;;;;36.30;29.03;;;;;;;2.14;95.50;101027.59;5263962;28;20037;-74
2022/11/19 09:24:13;;;;;;;35.67;27.17;;;;;;;2.10;94.67;101035.19;5262636;28;20043;-75
2022/11/19 09:26:44;;;;;;;36.87;27.00;;;;;;;2.10;95.82;101043.78;5273881;28;20037;-72
2022/11/19 09:29:16;;;;;;;36.23;27.93;;;;;;;2.11;96.41;101045.53;5270793;28;20025;-74
2022/11/19 09:31:47;;;;;;;35.33;25.83;;;;;;;2.23;96.36;101044.09;5265799;28;20033;-73
2022/11/19 09:34:20;;;;;;;35.83;27.93;;;;;;;2.21;95.44;101045.75;5274984;28;20024;-74
2022/11/19 09:36:51;;;;;;;36.13;28.33;;;;;;;2.24;96.45;101043.25;5281629;28;20029;-73
2022/11/19 09:39:23;;;;;;;37.93;27.73;;;;;;;2.16;96.53;101048.22;5278466;28;20029;-73
2022/11/19 09:42:20;;;;;;;33.03;27.33;;;;;;;2.16;95.70;101059.38;5275432;28;20052;-73
2022/11/19 09:45:16;;;;;;;32.67;26.40;;;;;;;2.24;95.56;101067.28;5231625;28;20041;-73
2022/11/19 09:48:07;;;;;;;35.42;25.98;;;;;;;2.18;95.60;101057.69;5263193;28;20112;-73
2022/11/19 09:50:50;;;;;;;36.40;28.25;;;;;;;2.26;95.54;101072.47;5262992;28;20487;-73
2022/11/19 09:53:22;;;;;;;33.95;26.10;;;;;;;2.24;95.60;101079.25;5261990;28;20029;-75
2022/11/19 09:55:54;;;;;;;34.00;27.35;;;;;;;2.10;95.06;101073.78;5262720;28;20486;-74
2022/11/19 09:58:45;;;;;;;36.70;25.13;;;;;;;2.23;94.38;101080.97;5263367;28;20049;-74
2022/11/19 10:01:18;;;;;;;34.97;25.25;;;;;;;2.09;93.93;101083.16;5261302;28;20492;-74
2022/11/19 10:03:52;;;;;;;32.70;25.30;;;;;;;1.92;92.42;101074.16;5262277;28;20028;-73
2022/11/19 10:06:41;;;;;;;37.10;25.75;;;;;;;2.04;93.47;101079.59;5262204;28;20021;-74
2022/11/19 10:09:27;;;;;;;33.95;27.33;;;;;;;2.05;94.60;101080.50;5259709;28;20486;-73
2022/11/19 10:12:13;;;;;;;37.42;27.63;;;;;;;2.04;94.19;101081.31;5272088;28;20035;-73
2022/11/19 10:14:56;;;;;;;32.53;26.10;;;;;;;2.08;94.31;101090.88;5262086;28;20484;-73
2022/11/19 10:17:39;;;;;;;37.35;27.00;;;;;;;2.06;93.68;101087.38;5261705;28;20029;-73
2022/11/19 10:20:23;;;;;;;37.80;28.42;;;;;;;2.00;93.16;101088.94;5261905;28;20021;-74
2022/11/19 10:22:58;;;;;;;33.63;26.77;;;;;;;1.98;93.05;101085.47;5261603;28;20037;-74
2022/11/19 10:25:54;;;;;;;32.33;26.02;;;;;;;2.03;93.37;101089.84;5260405;28;20382;-73
2022/11/19 10:28:29;;;;;;;39.53;27.23;;;;;;;2.05;93.13;101094.22;5273355;28;20021;-73
2022/11/19 10:31:14;;;;;;;33.28;26.15;;;;;;;2.08;93.83;101107.16;5280796;28;20479;-78
2022/11/19 10:33:58;;;;;;;34.40;25.70;;;;;;;2.12;94.05;101096.09;5282371;28;20090;-74
2022/11/19 10:36:41;;;;;;;31.50;25.38;;;;;;;2.17;93.78;101096.22;5281898;28;20033;-73
2022/11/19 10:39:36;;;;;;;32.25;25.17;;;;;;;2.28;94.12;101105.09;5280733;28;20518;-74
2022/11/19 10:42:31;;;;;;;33.08;24.58;;;;;;;2.36;94.13;101103.59;5270428;28;20495;-73
2022/11/19 10:45:16;;;;;;;34.40;26.52;;;;;;;2.29;92.99;101100.84;5263399;28;20086;-72
2022/11/19 10:47:50;;;;;;;30.23;25.70;;;;;;;2.27;93.10;101103.38;5261699;28;20129;-74
2022/11/19 10:50:23;;;;;;;28.60;23.88;;;;;;;2.23;90.42;101092.97;5272207;28;20032;-74
2022/11/19 10:52:56;;;;;;;;;;;;;;;2.40;91.40;101099.44;5283488;28;20044;-74
2022/11/19 10:55:34;;;;;;;29.48;22.92;;;;;;;2.24;90.20;101098.16;5282353;28;19940;-74
2022/11/19 10:58:14;;;;;;;30.23;22.17;;;;;;;2.30;89.97;101103.47;5280800;28;20349;-73
2022/11/19 11:00:46;;;;;;;29.80;24.83;;;;;;;2.14;90.06;101102.19;5271430;28;20427;-72
2022/11/19 11:03:25;;;;;;;29.10;22.90;;;;;;;2.16;90.45;101107.38;5265544;28;20033;-73
2022/11/19 11:06:05;;;;;;;28.85;23.58;;;;;;;2.12;90.58;101103.81;5260226;28;20037;-74
2022/11/19 11:08:50;;;;;;;29.33;23.35;;;;;;;2.13;90.29;101102.16;5261106;28;20053;-74
2022/11/19 11:17:24;;;;;;;32.03;21.23;;;;;;;2.28;89.83;101104.25;5262446;28;20033;-74
2022/11/19 11:20:27;;;;;;;28.50;22.65;;;;;;;2.34;89.38;101099.25;5260313;28;20476;-72
2022/11/19 11:23:08;;;;;;;28.38;21.67;;;;;;;2.40;88.22;101107.16;5259499;28;20472;-74
2022/11/19 11:26:09;;;;;;;24.48;20.23;;;;;;;2.38;88.05;101108.78;5261592;28;20486;-73
2022/11/19 11:29:12;;;;;;;27.58;21.25;;;;;;;2.42;87.93;101104.63;5261000;28;20072;-73
2022/11/19 11:31:46;;;;;;;26.63;20.77;;;;;;;2.37;87.96;101101.91;5261792;28;20041;-74
2022/11/19 11:34:29;;;;;;;27.45;20.67;;;;;;;2.45;88.56;101096.97;5261366;28;20036;-73
2022/11/19 11:37:03;;;;;;;27.45;20.13;;;;;;;2.32;87.39;101094.06;5266026;28;20041;-73
2022/11/19 11:39:43;;;;;;;25.65;20.17;;;;;;;2.26;87.07;101095.63;5263954;28;20560;-72
2022/11/19 11:42:18;;;;;;;22.35;18.63;;;;;;;2.11;87.07;101085.78;5265845;28;20035;-73
2022/11/19 11:44:56;;;;;;;26.38;20.52;;;;;;;2.14;87.86;101081.63;5265624;28;20033;-74
2022/11/19 11:47:35;;;;;;;24.70;20.00;;;;;;;2.25;87.69;101086.16;5265825;28;20446;-73
2022/11/19 11:50:07;;;;;;;24.00;20.30;;;;;;;2.31;87.21;101091.47;5265737;28;20055;-74
2022/11/19 11:52:45;;;;;;;;;;;;;;;2.49;87.76;101091.06;5266353;28;20059;-73
2022/11/19 11:55:23;;;;;;;22.63;18.33;;;;;;;2.33;87.05;101087.22;5265309;28;19916;-74
2022/11/19 11:57:59;;;;;;;23.10;18.95;;;;;;;2.51;87.86;101089.38;5266006;28;20032;-73
2022/11/19 12:00:39;;;;;;;21.50;17.90;;;;;;;2.49;87.51;101094.50;5265214;28;20471;-72
2022/11/19 12:03:13;;;;;;;24.42;19.02;;;;;;;2.53;86.94;101093.75;5265612;28;20060;-73
2022/11/19 12:06:07;;;;;;;23.23;18.17;;;;;;;2.58;86.32;101096.44;5263701;28;20029;-73
2022/11/19 12:08:59;;;;;;;20.88;17.35;;;;;;;2.45;85.21;101087.53;5265125;28;20487;-74
2022/11/19 12:11:53;;;;;;;20.05;17.27;;;;;;;2.39;86.34;101092.53;5265679;28;20060;-74